Miltiadis Junior — D5FV2 — position and weather

sailwx.info

Track history (hours):
 
Tides and Currents Weather Stations Pressure Air Temp Water Temp Dewpoint Dewpoint Depression Visibility Wind Speed Wind Dir Waves Ship Positions

Miltiadis Junior

Last reported at 2018-Jun-15 14:11 UTC. Time now 2018-Jul-20 10:49 UTC.
Position N 01°53' E 104°45'.
Warning: this ship's position is 34 days out of date.

Length 333 m; draft 20.8 m.

Type: Tanker. MMSI: 636016370.

Date/timePositionNaut miles runAvg speedWind from/ knotsBaromVisibWave heightAir tempDewpointWater temp
2018-Jun-15 14:11N 01°53' E 104°45'312.6
2018-Jun-15 13:57N 01°50' E 104°44'812.3
2018-Jun-15 13:20N 01°43' E 104°41'512.8
2018-Jun-15 12:59N 01°39' E 104°39'711.5
2018-Jun-15 12:23N 01°33' E 104°37'5 9.3
2018-Jun-15 11:52N 01°29' E 104°34'3 8.2
2018-Jun-15 11:30N 01°27' E 104°31'5 9.3
2018-Jun-15 10:55N 01°23' E 104°27'511.4
2018-Jun-15 10:30N 01°20' E 104°24'510.6
2018-Jun-15 10:00N 01°17' E 104°19'510.9
2018-Jun-15 09:29N 01°17' E 104°14'511.2
2018-Jun-15 09:00N 01°16' E 104°08'5 9.7
2018-Jun-15 08:30N 01°15' E 104°04'2 4.3
2018-Jun-15 07:59N 01°15' E 104°01'2 5.0
2018-Jun-15 07:30N 01°14' E 103°59'4 7.7
2018-Jun-15 07:00N 01°13' E 103°55'4 7.4
2018-Jun-15 06:30N 01°12' E 103°52'4 7.3
2018-Jun-15 06:00N 01°10' E 103°49'3 5.3
2018-Jun-15 05:30N 01°09' E 103°46'3 6.3
2018-Jun-15 04:59N 01°07' E 103°44'3 6.3
2018-Jun-15 04:30N 01°05' E 103°42'2 4.1
2018-Jun-15 04:00N 01°04' E 103°40'2 4.8
2018-Jun-15 03:29N 01°04' E 103°38'5 9.2
2018-Jun-15 02:59N 01°06' E 103°34'5 9.6
2018-Jun-15 02:30N 01°08' E 103°30'5 9.9
2018-Jun-15 01:59N 01°11' E 103°25'611.7
2018-Jun-15 01:29N 01°14' E 103°21'611.8
2018-Jun-15 00:58N 01°18' E 103°16'611.5
2018-Jun-15 00:25N 01°23' E 103°11'610.8
2018-Jun-14 23:49N 01°27' E 103°06'  
Track history (hours):
 
Tides and Currents Weather Stations Pressure Air Temp Water Temp Dewpoint Dewpoint Depression Visibility Wind Speed Wind Dir Waves Ship Positions

Miltiadis Junior

Last reported at 2018-Jun-15 14:11 UTC. Time now 2018-Jul-20 10:49 UTC.
Position N 01°53' E 104°45'.
Warning: this ship's position is 34 days out of date.

Length 333 m; draft 20.8 m.

Type: Tanker. MMSI: 636016370.

Date/timePositionNaut miles runAvg speedWind from/ knotsBaromVisibWave heightAir tempDewpointWater temp
2018-Jun-15 14:11N 01°53' E 104°45'312.6
2018-Jun-15 13:57N 01°50' E 104°44'812.3
2018-Jun-15 13:20N 01°43' E 104°41'512.8
2018-Jun-15 12:59N 01°39' E 104°39'711.5
2018-Jun-15 12:23N 01°33' E 104°37'5 9.3
2018-Jun-15 11:52N 01°29' E 104°34'3 8.2
2018-Jun-15 11:30N 01°27' E 104°31'5 9.3
2018-Jun-15 10:55N 01°23' E 104°27'511.4
2018-Jun-15 10:30N 01°20' E 104°24'510.6
2018-Jun-15 10:00N 01°17' E 104°19'510.9
2018-Jun-15 09:29N 01°17' E 104°14'511.2
2018-Jun-15 09:00N 01°16' E 104°08'5 9.7
2018-Jun-15 08:30N 01°15' E 104°04'2 4.3
2018-Jun-15 07:59N 01°15' E 104°01'2 5.0
2018-Jun-15 07:30N 01°14' E 103°59'4 7.7
2018-Jun-15 07:00N 01°13' E 103°55'4 7.4
2018-Jun-15 06:30N 01°12' E 103°52'4 7.3
2018-Jun-15 06:00N 01°10' E 103°49'3 5.3
2018-Jun-15 05:30N 01°09' E 103°46'3 6.3
2018-Jun-15 04:59N 01°07' E 103°44'3 6.3
2018-Jun-15 04:30N 01°05' E 103°42'2 4.1
2018-Jun-15 04:00N 01°04' E 103°40'2 4.8
2018-Jun-15 03:29N 01°04' E 103°38'5 9.2
2018-Jun-15 02:59N 01°06' E 103°34'5 9.6
2018-Jun-15 02:30N 01°08' E 103°30'5 9.9
2018-Jun-15 01:59N 01°11' E 103°25'611.7
2018-Jun-15 01:29N 01°14' E 103°21'611.8
2018-Jun-15 00:58N 01°18' E 103°16'611.5
2018-Jun-15 00:25N 01°23' E 103°11'610.8
2018-Jun-14 23:49N 01°27' E 103°06'  

Dump ship's entire track history